29WI weather

Whittlesey Cranberry Co Airport
Babcock, Wisconsin, United States

Public forecast

Using degrees Fahrenheit for public forecast. Weather courtesy of forecast.io.

METAR (pilot weather report)

Closest report is Alexander Field South Wood County Airport, 8.4 nm (15.5 km) ENE. Retrieved 2019/08/25 02:54 UTC (41 minutes ago):

KISW 250254Z AUTO 13006KT 10SM CLR 17/12 A3022 RMK AO2 SLP233 T01670122 50002

TAF (pilot weather forecast)

Forecast is more than 6 hours old.

Closest forecast is Volk Field, 25.2 nm (46.6 km) SSW. Retrieved 2019/08/24 17:09 UTC (10 hours ago):

TAF KVOK 241700Z 2417/2523 13012KT 9999 FEW030 BKN040 QNH3013INS WND 15009KT AFT 2421 BECMG 2514/2515 17012G18KT 9999 BKN030 QNH3000INS BECMG 2522/2523 17006KT 9999 BKN040 QNH2999INS TX24/2422Z TN10/2510Z LAST NO AMDS AFT 2421 NEXT 2509